Time;durP1;ratioP1;P1;durP2;ratioP2;P2;SDS_P1;SDS_P2;PMS_P1;PMS_P2;Temp;Humidity;BMP_temperature;BMP_pressure;BME280_temperature;BME280_humidity;BME280_pressure;Samples;Min_cycle;Max_cycle;Signal;HPM_P1;HPM_P2
2024/02/05 00:01:58;;;;;;;4.93;3.93;;;4.20;99.90;;;;;;4416597;28;655390;-73
2024/02/05 00:04:46;;;;;;;8.73;5.57;;;4.20;99.90;;;;;;4436830;28;656276;-73
2024/02/05 00:07:33;;;;;;;7.53;4.63;;;4.30;99.90;;;;;;4416347;28;655690;-73
2024/02/05 00:10:20;;;;;;;5.27;3.23;;;4.30;99.90;;;;;;4449967;28;656922;-73
2024/02/05 00:13:07;;;;;;;5.10;4.10;;;4.30;99.90;;;;;;4429611;28;655848;-73
2024/02/05 00:15:56;;;;;;;6.43;3.67;;;4.30;99.90;;;;;;4446703;28;656715;-73
2024/02/05 00:18:43;;;;;;;5.30;3.60;;;4.30;99.90;;;;;;4419359;28;655636;-73
2024/02/05 00:21:31;;;;;;;3.40;2.70;;;4.30;99.90;;;;;;4435845;28;655889;-72
2024/02/05 00:24:18;;;;;;;3.97;2.80;;;4.30;99.90;;;;;;4418860;28;655648;-73
2024/02/05 00:27:05;;;;;;;3.27;2.50;;;4.30;99.90;;;;;;4452584;28;655445;-73
2024/02/05 00:29:53;;;;;;;4.30;2.17;;;4.30;99.90;;;;;;4430194;28;655405;-73
2024/02/05 00:32:41;;;;;;;3.13;2.47;;;4.30;99.90;;;;;;4444393;28;655776;-73
2024/02/05 00:35:28;;;;;;;1.63;1.27;;;4.30;99.90;;;;;;4397122;28;655524;-72
2024/02/05 00:38:15;;;;;;;2.67;1.93;;;4.30;99.90;;;;;;4446287;28;656696;-73
2024/02/05 00:41:03;;;;;;;1.70;1.53;;;4.30;99.90;;;;;;4411684;28;655920;-73
2024/02/05 00:43:50;;;;;;;2.23;1.90;;;4.30;99.90;;;;;;4439306;28;656539;-73
2024/02/05 00:46:37;;;;;;;3.20;2.73;;;4.30;99.90;;;;;;4439435;28;655500;-73
2024/02/05 00:49:26;;;;;;;1.43;1.13;;;4.30;99.90;;;;;;4449068;28;655965;-73
2024/02/05 00:52:14;;;;;;;3.90;1.93;;;4.30;99.90;;;;;;4426058;28;655664;-73
2024/02/05 00:55:01;;;;;;;4.10;2.70;;;4.20;99.90;;;;;;4454801;28;655901;-73
2024/02/05 00:57:48;;;;;;;7.75;3.15;;;4.20;99.90;;;;;;4422485;28;655613;-73
2024/02/05 01:00:35;;;;;;;4.10;2.30;;;4.20;99.90;;;;;;4450895;28;656156;-73
2024/02/05 01:03:22;;;;;;;2.20;1.90;;;4.30;99.90;;;;;;4432078;28;655832;-73
2024/02/05 01:06:11;;;;;;;3.90;2.93;;;4.20;99.90;;;;;;4452361;28;656822;-73
2024/02/05 01:08:58;;;;;;;5.33;3.23;;;4.20;99.90;;;;;;4422327;28;655870;-74
2024/02/05 01:11:45;;;;;;;4.60;2.50;;;4.20;99.90;;;;;;4449384;28;655694;-73
2024/02/05 01:14:33;;;;;;;2.93;2.57;;;4.20;99.90;;;;;;4410725;28;656327;-73
2024/02/05 01:17:20;;;;;;;4.10;2.80;;;4.20;99.90;;;;;;4431685;28;656446;-73
2024/02/05 01:20:10;;;;;;;4.40;2.70;;;4.20;99.90;;;;;;4433675;28;656097;-73
2024/02/05 01:22:59;;;;;;;4.07;2.20;;;4.20;99.90;;;;;;4432559;28;656258;-72
2024/02/05 01:25:46;;;;;;;3.90;2.30;;;4.20;99.90;;;;;;4438741;28;655378;-73
2024/02/05 01:28:33;;;;;;;3.97;2.77;;;4.20;99.90;;;;;;4414526;28;655188;-74
2024/02/05 01:31:20;;;;;;;3.03;2.40;;;4.20;99.90;;;;;;4453378;28;655680;-73
2024/02/05 01:34:08;;;;;;;3.57;2.30;;;4.20;99.90;;;;;;4412267;28;655638;-74
2024/02/05 01:36:55;;;;;;;1.30;1.13;;;4.20;99.90;;;;;;4443389;28;655161;-73
2024/02/05 01:39:44;;;;;;;3.93;2.10;;;4.20;99.90;;;;;;4422032;28;655283;-73
2024/02/05 01:42:31;;;;;;;4.87;3.20;;;4.20;99.90;;;;;;4436932;28;655925;-73
2024/02/05 01:45:18;;;;;;;3.83;2.87;;;4.20;99.90;;;;;;4413419;28;655350;-73
2024/02/05 01:48:07;;;;;;;3.70;2.23;;;4.20;99.90;;;;;;4424140;28;656752;-73
2024/02/05 01:50:54;;;;;;;2.70;2.10;;;4.20;99.90;;;;;;4424683;28;655527;-73
2024/02/05 01:53:41;;;;;;;1.63;1.33;;;4.10;99.90;;;;;;4447839;28;655605;-73
2024/02/05 01:56:31;;;;;;;2.10;1.15;;;4.10;99.90;;;;;;4419681;28;655569;-73
2024/02/05 01:59:18;;;;;;;2.17;1.70;;;4.10;99.90;;;;;;4419735;28;655934;-73
2024/02/05 02:02:06;;;;;;;1.20;1.00;;;4.10;99.90;;;;;;4415927;28;656121;-73
2024/02/05 02:04:53;;;;;;;2.97;1.87;;;4.10;99.90;;;;;;4417417;28;655959;-72
2024/02/05 02:07:40;;;;;;;2.83;2.10;;;4.10;99.90;;;;;;4429180;28;655998;-72
2024/02/05 02:10:27;;;;;;;2.72;1.98;;;4.10;99.90;;;;;;4420423;28;656321;-73
2024/02/05 02:13:16;;;;;;;2.50;2.00;;;4.00;99.90;;;;;;4440437;28;655525;-73
2024/02/05 02:16:05;;;;;;;3.23;2.40;;;4.10;99.90;;;;;;4428182;28;655637;-72
2024/02/05 02:18:52;;;;;;;2.67;2.40;;;4.10;99.90;;;;;;4428757;28;655884;-73
2024/02/05 02:21:40;;;;;;;2.27;1.40;;;4.10;99.90;;;;;;4451986;28;655618;-73
2024/02/05 02:24:28;;;;;;;4.40;3.23;;;4.10;99.90;;;;;;4456536;28;656113;-73
2024/02/05 02:27:15;;;;;;;3.50;2.70;;;4.10;99.90;;;;;;4411931;28;655710;-72
2024/02/05 02:30:03;;;;;;;3.95;3.10;;;4.10;99.90;;;;;;4419874;28;655436;-73
2024/02/05 02:32:56;;;;;;;5.10;2.90;;;4.20;99.90;;;;;;4450631;28;655685;-73
2024/02/05 02:35:44;;;;;;;1.53;0.83;;;4.20;99.90;;;;;;4406062;28;656615;-73
2024/02/05 02:38:36;;;;;;;4.33;2.90;;;4.20;99.90;;;;;;4444308;28;655895;-72
2024/02/05 02:41:26;;;;;;;3.63;2.63;;;4.20;99.90;;;;;;4422652;28;655137;-73
2024/02/05 02:44:13;;;;;;;4.47;2.73;;;4.20;99.90;;;;;;4396247;28;656026;-73
2024/02/05 02:47:01;;;;;;;4.10;2.93;;;4.20;99.90;;;;;;4402961;28;655718;-72
2024/02/05 02:49:48;;;;;;;6.13;3.13;;;4.20;99.90;;;;;;4395298;28;655723;-73
2024/02/05 02:52:36;;;;;;;4.93;3.00;;;4.20;99.90;;;;;;4414063;28;655326;-73
2024/02/05 02:55:23;;;;;;;5.00;3.13;;;4.20;99.90;;;;;;4390619;28;656023;-73
2024/02/05 02:58:11;;;;;;;4.67;3.33;;;4.20;99.90;;;;;;4414011;28;656848;-72
2024/02/05 03:00:58;;;;;;;6.05;3.70;;;4.30;99.90;;;;;;4397399;28;655591;-73
2024/02/05 03:03:47;;;;;;;6.97;3.97;;;4.30;99.90;;;;;;4402678;28;656592;-73
2024/02/05 03:06:34;;;;;;;4.03;2.63;;;4.30;99.90;;;;;;4391224;28;655652;-73
2024/02/05 03:09:23;;;;;;;3.10;1.83;;;4.30;99.90;;;;;;4407046;28;656073;-73
2024/02/05 03:12:10;;;;;;;11.17;4.97;;;4.40;99.90;;;;;;4391391;28;656483;-73
2024/02/05 03:14:59;;;;;;;7.73;2.30;;;4.30;99.90;;;;;;4388754;28;656738;-73
2024/02/05 03:17:46;;;;;;;9.10;6.23;;;4.40;99.90;;;;;;4414324;28;656210;-73
2024/02/05 03:20:34;;;;;;;9.87;5.47;;;4.40;99.90;;;;;;4394069;28;655816;-73
2024/02/05 03:23:21;;;;;;;9.73;4.00;;;4.40;99.90;;;;;;4419585;28;655256;-76
2024/02/05 03:26:09;;;;;;;9.03;5.80;;;4.40;99.90;;;;;;4387455;28;655607;-74
2024/02/05 03:28:56;;;;;;;7.80;4.63;;;4.40;99.90;;;;;;4407058;28;655560;-73
2024/02/05 03:31:44;;;;;;;7.47;3.37;;;4.50;99.90;;;;;;4403283;28;655406;-72
2024/02/05 03:34:32;;;;;;;10.07;6.50;;;4.50;99.90;;;;;;4437447;28;656271;-73
2024/02/05 03:37:19;;;;;;;8.67;5.73;;;4.50;99.90;;;;;;4387125;28;656768;-73
2024/02/05 03:40:07;;;;;;;11.00;6.70;;;4.50;99.90;;;;;;4414521;28;655435;-74
2024/02/05 03:42:55;;;;;;;9.43;5.97;;;4.50;99.90;;;;;;4400313;28;656830;-73
2024/02/05 03:45:42;;;;;;;8.87;6.03;;;4.60;99.90;;;;;;4444824;28;656080;-74
2024/02/05 03:48:31;;;;;;;9.80;4.78;;;4.50;99.90;;;;;;4431538;28;656052;-73
2024/02/05 03:51:18;;;;;;;8.97;6.57;;;4.60;99.90;;;;;;4409614;28;655429;-73
2024/02/05 03:54:07;;;;;;;11.80;7.77;;;4.60;99.90;;;;;;4431447;28;655350;-73
2024/02/05 03:56:54;;;;;;;5.60;3.00;;;4.70;99.90;;;;;;4423771;28;657336;-73
2024/02/05 03:59:41;;;;;;;10.77;3.93;;;4.70;99.90;;;;;;4424387;28;655093;-73
2024/02/05 04:02:29;;;;;;;11.17;7.23;;;4.70;99.90;;;;;;4427095;28;656507;-74
2024/02/05 04:05:18;;;;;;;11.13;5.70;;;4.70;99.90;;;;;;4465571;28;656206;-73
2024/02/05 04:08:06;;;;;;;11.87;7.57;;;4.80;99.90;;;;;;4415772;28;657524;-73
2024/02/05 04:10:53;;;;;;;7.40;3.43;;;4.80;99.90;;;;;;4422414;28;656374;-72
2024/02/05 04:13:41;;;;;;;11.40;6.47;;;4.90;99.90;;;;;;4436514;28;655831;-73
2024/02/05 04:16:28;;;;;;;6.00;3.80;;;4.90;99.90;;;;;;4416351;28;656894;-73
2024/02/05 04:19:15;;;;;;;8.73;5.15;;;4.90;99.90;;;;;;4432136;28;655812;-73
2024/02/05 04:22:04;;;;;;;6.57;4.53;;;5.00;99.90;;;;;;4410013;28;656066;-73
2024/02/05 04:24:51;;;;;;;11.63;7.40;;;5.00;99.90;;;;;;4460049;28;655308;-74
2024/02/05 04:27:38;;;;;;;8.10;5.47;;;5.00;99.90;;;;;;4430672;28;656996;-73
2024/02/05 04:30:29;;;;;;;10.50;6.60;;;5.10;99.90;;;;;;4452764;28;655956;-73
2024/02/05 04:33:16;;;;;;;5.97;4.20;;;5.20;99.90;;;;;;4415926;28;656702;-74
2024/02/05 04:36:04;;;;;;;9.47;4.50;;;5.20;99.90;;;;;;4430882;28;655679;-75
2024/02/05 04:38:53;;;;;;;6.77;4.33;;;5.30;99.90;;;;;;4454570;28;655918;-73
2024/02/05 04:41:41;;;;;;;8.13;3.53;;;5.40;99.90;;;;;;4425649;28;656489;-73
2024/02/05 04:44:28;;;;;;;4.37;2.77;;;5.50;99.90;;;;;;4431427;28;655790;-73
2024/02/05 04:47:15;;;;;;;9.50;5.80;;;5.50;99.90;;;;;;4435360;28;656127;-73
2024/02/05 04:50:03;;;;;;;9.30;6.63;;;5.60;99.90;;;;;;4413086;28;655746;-74
2024/02/05 04:52:50;;;;;;;6.77;3.93;;;5.60;99.90;;;;;;4447701;28;655988;-73
2024/02/05 04:55:41;;;;;;;8.10;5.37;;;5.70;99.90;;;;;;4420611;28;655777;-73
2024/02/05 04:58:29;;;;;;;11.68;7.90;;;5.70;99.90;;;;;;4422411;28;655338;-73
2024/02/05 05:01:16;;;;;;;11.73;8.37;;;5.80;99.90;;;;;;4434121;28;657206;-73
2024/02/05 05:04:04;;;;;;;3.17;2.37;;;5.90;99.90;;;;;;4403213;28;656975;-73
2024/02/05 05:06:51;;;;;;;11.10;7.80;;;5.90;99.90;;;;;;4429684;28;656321;-73
2024/02/05 05:09:38;;;;;;;10.00;6.53;;;6.00;99.90;;;;;;4414780;28;656528;-74
2024/02/05 05:12:27;;;;;;;7.43;5.70;;;6.00;99.90;;;;;;4447560;28;657252;-74
2024/02/05 05:15:15;;;;;;;6.50;4.72;;;6.20;99.90;;;;;;4414640;28;655654;-73
2024/02/05 05:18:02;;;;;;;7.03;4.93;;;6.20;99.90;;;;;;4415191;28;655957;-74
2024/02/05 05:20:50;;;;;;;5.13;3.10;;;6.20;99.90;;;;;;4442552;28;656010;-74
2024/02/05 05:23:37;;;;;;;6.93;3.87;;;6.30;99.90;;;;;;4435981;28;656062;-75
2024/02/05 05:26:24;;;;;;;9.57;5.97;;;6.40;99.90;;;;;;4407239;28;656062;-74
2024/02/05 05:29:12;;;;;;;10.80;5.57;;;6.30;99.90;;;;;;4442638;28;655610;-75
2024/02/05 05:32:00;;;;;;;6.40;4.47;;;6.40;99.90;;;;;;4411909;28;657388;-75
2024/02/05 05:34:47;;;;;;;4.13;2.60;;;6.50;99.90;;;;;;4449527;28;655276;-75
2024/02/05 05:37:34;;;;;;;6.00;3.43;;;6.50;99.90;;;;;;4439129;28;655848;-75
2024/02/05 05:40:21;;;;;;;7.38;5.35;;;6.50;99.90;;;;;;4443564;28;655817;-75
2024/02/05 05:43:08;;;;;;;5.90;4.37;;;6.60;99.90;;;;;;4410830;28;655581;-75
2024/02/05 05:45:57;;;;;;;4.43;3.60;;;6.60;99.90;;;;;;4440149;28;656624;-75
2024/02/05 05:48:44;;;;;;;4.23;3.13;;;6.60;99.90;;;;;;4423404;28;656072;-74
2024/02/05 05:51:31;;;;;;;2.90;2.20;;;6.60;99.90;;;;;;4450131;28;655952;-74
2024/02/05 05:54:19;;;;;;;2.70;2.23;;;6.70;99.90;;;;;;4422940;28;655520;-74
2024/02/05 05:57:07;;;;;;;5.43;3.10;;;6.80;99.90;;;;;;4440156;28;655550;-75
2024/02/05 05:59:54;;;;;;;3.50;2.73;;;6.80;99.90;;;;;;4434962;28;656127;-75
2024/02/05 06:02:42;;;;;;;3.10;1.73;;;6.80;99.90;;;;;;4439531;28;657866;-75
2024/02/05 06:05:30;;;;;;;3.45;3.00;;;6.90;99.90;;;;;;4417161;28;655602;-75
2024/02/05 06:08:17;;;;;;;4.03;2.63;;;6.90;99.90;;;;;;4418099;28;655755;-76
2024/02/05 06:11:05;;;;;;;4.60;2.70;;;6.90;99.90;;;;;;4442156;28;655716;-75
2024/02/05 06:13:52;;;;;;;3.80;3.00;;;6.90;99.90;;;;;;4429012;28;656203;-75
2024/02/05 06:16:39;;;;;;;5.60;3.93;;;6.90;99.90;;;;;;4430665;28;656548;-75
2024/02/05 06:19:27;;;;;;;6.30;4.20;;;6.90;99.90;;;;;;4444975;28;655708;-75
2024/02/05 06:22:15;;;;;;;7.17;3.77;;;6.90;99.90;;;;;;4427286;28;656334;-76
2024/02/05 06:25:03;;;;;;;7.23;4.27;;;6.90;99.90;;;;;;4434058;28;655941;-77
2024/02/05 06:27:50;;;;;;;3.43;2.50;;;7.00;99.90;;;;;;4427647;28;655283;-75
2024/02/05 06:30:42;;;;;;;5.37;2.57;;;7.00;99.90;;;;;;4409311;28;655257;-75
2024/02/05 06:33:31;;;;;;;7.85;4.30;;;7.00;99.90;;;;;;4415619;28;655498;-75
2024/02/05 06:36:20;;;;;;;3.67;1.97;;;7.00;99.90;;;;;;4426300;28;655444;-75
2024/02/05 06:39:10;;;;;;;7.30;4.10;;;7.00;99.90;;;;;;4436535;28;655577;-76
2024/02/05 06:41:57;;;;;;;7.70;5.13;;;7.10;99.90;;;;;;4442033;28;655595;-75
2024/02/05 06:44:45;;;;;;;8.10;5.07;;;7.10;99.90;;;;;;4446916;28;655634;-76
2024/02/05 06:47:32;;;;;;;7.20;5.40;;;7.10;99.90;;;;;;4422007;28;655270;-75
2024/02/05 06:50:20;;;;;;;8.73;5.03;;;7.10;99.90;;;;;;4449479;27;656531;-75
2024/02/05 06:53:08;;;;;;;5.37;3.73;;;7.10;99.90;;;;;;4455405;28;655158;-75
2024/02/05 06:55:55;;;;;;;5.13;3.33;;;7.20;99.90;;;;;;4428596;28;655631;-75
2024/02/05 06:58:42;;;;;;;4.83;3.73;;;7.20;99.90;;;;;;4431538;28;655971;-75
2024/02/05 07:01:30;;;;;;;4.63;3.37;;;7.20;99.90;;;;;;4443501;28;655666;-75
2024/02/05 07:04:17;;;;;;;6.80;4.73;;;7.20;99.90;;;;;;4426430;28;656137;-75
2024/02/05 07:07:05;;;;;;;8.00;4.37;;;7.30;99.90;;;;;;4456682;28;656017;-75
2024/02/05 07:09:53;;;;;;;3.40;2.43;;;7.20;99.90;;;;;;4453812;28;655263;-75
2024/02/05 07:12:40;;;;;;;3.67;2.37;;;7.30;99.90;;;;;;4422807;28;655459;-76
2024/02/05 07:15:27;;;;;;;5.17;3.33;;;7.30;99.90;;;;;;4429645;28;656140;-76
2024/02/05 07:18:15;;;;;;;4.70;2.53;;;7.40;99.90;;;;;;4442324;28;656074;-75
2024/02/05 07:21:04;;;;;;;4.67;3.60;;;7.40;99.90;;;;;;4449234;28;656215;-76
2024/02/05 07:23:52;;;;;;;5.30;3.83;;;7.40;99.90;;;;;;4413476;28;655692;-75
2024/02/05 07:26:40;;;;;;;11.83;4.60;;;7.40;99.90;;;;;;4425569;28;655688;-75
2024/02/05 07:29:27;;;;;;;6.57;3.50;;;7.40;99.90;;;;;;4409362;28;656972;-75
2024/02/05 07:32:15;;;;;;;8.57;5.10;;;7.40;99.90;;;;;;4429460;28;655932;-76
2024/02/05 07:35:02;;;;;;;7.10;4.90;;;7.40;99.90;;;;;;4434696;28;655547;-76
2024/02/05 07:37:49;;;;;;;9.50;6.27;;;7.40;99.90;;;;;;4416040;28;657316;-78
2024/02/05 07:40:36;;;;;;;11.00;5.80;;;7.40;99.90;;;;;;4439606;28;655800;-74
2024/02/05 07:43:25;;;;;;;11.87;6.83;;;7.40;99.90;;;;;;4420256;28;656899;-75
2024/02/05 07:46:12;;;;;;;8.27;5.20;;;7.40;99.90;;;;;;4438723;28;657185;-76
2024/02/05 07:48:59;;;;;;;11.73;5.83;;;7.40;99.90;;;;;;4419855;28;656567;-75
2024/02/05 07:51:47;;;;;;;11.13;6.27;;;7.40;99.90;;;;;;4452168;28;657351;-74
2024/02/05 07:54:34;;;;;;;8.38;5.72;;;7.40;99.90;;;;;;4427213;28;656733;-74
2024/02/05 07:57:22;;;;;;;4.40;2.50;;;7.40;99.90;;;;;;4449662;28;655491;-74
2024/02/05 08:00:12;;;;;;;7.43;4.13;;;7.50;99.90;;;;;;4416270;28;655688;-75
2024/02/05 08:02:59;;;;;;;10.17;6.10;;;7.50;99.90;;;;;;4422351;28;656587;-76
2024/02/05 08:05:46;;;;;;;8.90;5.27;;;7.60;99.90;;;;;;4440931;28;656555;-77
2024/02/05 08:08:34;;;;;;;9.87;5.13;;;7.60;99.90;;;;;;4430715;28;655457;-76
2024/02/05 08:11:21;;;;;;;8.00;4.57;;;7.60;99.90;;;;;;4444122;28;655296;-76
2024/02/05 08:14:10;;;;;;;10.10;4.80;;;7.60;99.90;;;;;;4413603;28;656222;-76
2024/02/05 08:16:58;;;;;;;8.60;4.53;;;7.70;99.90;;;;;;4444031;28;656494;-76
2024/02/05 08:19:45;;;;;;;9.17;4.57;;;7.70;99.90;;;;;;4426467;28;656527;-76
2024/02/05 08:22:33;;;;;;;10.90;4.80;;;7.70;99.90;;;;;;4420519;28;655741;-77
2024/02/05 08:25:21;;;;;;;10.23;4.37;;;7.60;99.90;;;;;;4436225;28;657560;-76
2024/02/05 08:28:08;;;;;;;9.17;3.90;;;7.60;99.90;;;;;;4402592;28;657626;-77
2024/02/05 08:30:56;;;;;;;8.80;4.40;;;7.70;99.90;;;;;;4445056;28;655608;-76
2024/02/05 08:33:44;;;;;;;5.23;2.40;;;7.70;99.90;;;;;;4428667;28;655879;-77
2024/02/05 08:36:33;;;;;;;2.93;0.97;;;7.70;99.90;;;;;;4444788;28;655382;-77
2024/02/05 08:39:20;;;;;;;7.13;3.80;;;7.70;99.90;;;;;;4420679;28;656514;-78
2024/02/05 08:42:08;;;;;;;3.63;1.50;;;7.70;99.90;;;;;;4431566;28;655849;-77
2024/02/05 08:44:55;;;;;;;8.27;4.27;;;7.80;99.90;;;;;;4434806;28;656171;-78
2024/02/05 08:47:42;;;;;;;6.30;3.27;;;7.80;99.90;;;;;;4414469;28;656775;-76
2024/02/05 08:50:33;;;;;;;7.40;3.70;;;7.80;99.90;;;;;;4442209;28;655679;-77
2024/02/05 08:53:20;;;;;;;5.20;3.03;;;7.90;99.90;;;;;;4413847;28;656251;-77
2024/02/05 08:56:09;;;;;;;4.93;2.80;;;7.80;99.90;;;;;;4416764;28;655814;-76
2024/02/05 08:58:56;;;;;;;6.57;3.93;;;7.90;99.90;;;;;;4444557;28;655525;-77
2024/02/05 09:01:43;;;;;;;7.77;3.50;;;7.90;99.90;;;;;;4427037;28;655530;-75
2024/02/05 09:04:31;;;;;;;8.90;4.23;;;7.90;99.90;;;;;;4435611;28;655383;-77
2024/02/05 09:07:21;;;;;;;7.13;3.70;;;7.90;99.90;;;;;;4415680;28;656074;-78
2024/02/05 09:10:09;;;;;;;6.97;4.00;;;7.90;99.90;;;;;;4423510;28;655628;-77
2024/02/05 09:12:56;;;;;;;8.40;4.70;;;7.90;99.90;;;;;;4434973;28;655596;-79
2024/02/05 09:15:43;;;;;;;10.23;4.50;;;7.90;99.90;;;;;;4416161;28;655954;-77
2024/02/05 09:18:31;;;;;;;7.95;4.30;;;7.90;99.90;;;;;;4443757;28;657217;-76
2024/02/05 09:21:18;;;;;;;6.73;3.47;;;7.90;99.90;;;;;;4413589;28;655708;-77
2024/02/05 09:24:07;;;;;;;6.93;3.30;;;7.90;99.90;;;;;;4446192;28;656395;-77
2024/02/05 09:26:54;;;;;;;6.27;3.20;;;8.00;99.90;;;;;;4429949;28;656394;-76
2024/02/05 09:29:41;;;;;;;4.93;3.03;;;8.00;99.90;;;;;;4442106;28;655507;-76
2024/02/05 09:32:28;;;;;;;5.88;3.92;;;7.90;99.90;;;;;;4411690;28;655954;-75
2024/02/05 09:35:16;;;;;;;9.40;4.67;;;8.00;99.90;;;;;;4444953;28;656377;-75
2024/02/05 09:38:04;;;;;;;5.73;2.87;;;7.90;99.90;;;;;;4421967;28;656793;-77
2024/02/05 09:40:53;;;;;;;5.53;3.50;;;8.00;99.90;;;;;;4433417;28;655375;-76
2024/02/05 09:43:40;;;;;;;5.07;2.90;;;8.00;99.90;;;;;;4404343;28;655828;-78
2024/02/05 09:46:30;;;;;;;7.40;3.10;;;8.10;99.90;;;;;;4406576;28;655624;-76
2024/02/05 09:49:18;;;;;;;5.27;2.93;;;8.10;99.90;;;;;;4422469;28;655750;-76
2024/02/05 09:52:07;;;;;;;4.80;2.47;;;8.10;99.90;;;;;;4427515;28;656428;-76
2024/02/05 09:54:54;;;;;;;4.73;2.20;;;8.10;99.90;;;;;;4401127;28;656915;-76
2024/02/05 09:57:43;;;;;;;3.57;2.53;;;8.10;99.90;;;;;;4442555;28;655445;-75
2024/02/05 10:00:31;;;;;;;3.13;1.60;;;8.10;99.90;;;;;;4408247;28;656306;-75
2024/02/05 10:03:18;;;;;;;2.20;1.23;;;8.20;99.90;;;;;;4397967;28;655728;-75
2024/02/05 10:06:05;;;;;;;4.07;2.20;;;8.20;99.90;;;;;;4429065;28;655749;-75
2024/02/05 10:08:54;;;;;;;3.27;2.20;;;8.10;99.90;;;;;;4416821;28;655629;-76
2024/02/05 10:11:44;;;;;;;4.77;2.77;;;8.10;99.90;;;;;;4426646;28;655489;-75
2024/02/05 10:14:32;;;;;;;3.50;2.43;;;8.20;99.90;;;;;;4422095;28;655969;-74
2024/02/05 10:17:20;;;;;;;3.47;2.47;;;8.10;99.90;;;;;;4411308;28;655689;-76
2024/02/05 10:20:12;;;;;;;3.23;1.67;;;8.20;99.90;;;;;;4432672;28;655355;-75
2024/02/05 10:22:59;;;;;;;6.13;2.77;;;8.10;99.90;;;;;;4400247;28;655335;-76
2024/02/05 10:25:47;;;;;;;5.20;3.17;;;8.10;99.90;;;;;;4428586;28;655718;-75
2024/02/05 10:28:34;;;;;;;8.43;5.83;;;8.00;99.90;;;;;;4415242;28;656222;-75
2024/02/05 10:31:22;;;;;;;5.60;3.23;;;8.00;99.90;;;;;;4426934;28;655160;-75
2024/02/05 10:34:14;;;;;;;9.80;6.00;;;7.90;99.90;;;;;;4400661;28;655385;-75
2024/02/05 10:37:05;;;;;;;10.87;7.07;;;7.80;99.90;;;;;;4412468;28;655995;-75
2024/02/05 10:40:04;;;;;;;11.67;7.50;;;7.70;99.90;;;;;;4393500;28;656722;-76
2024/02/05 10:42:51;;;;;;;8.07;4.27;;;7.70;99.90;;;;;;4411191;28;657021;-75
2024/02/05 10:45:40;;;;;;;9.95;6.72;;;7.70;99.90;;;;;;4396328;28;655446;-77
2024/02/05 10:48:29;;;;;;;6.60;4.10;;;7.70;99.90;;;;;;4333602;28;655705;-77
2024/02/05 10:51:16;;;;;;;12.00;7.33;;;7.70;99.90;;;;;;4370233;28;655768;-77
2024/02/05 10:54:03;;;;;;;13.10;6.40;;;7.70;99.90;;;;;;4330624;28;656091;-77
2024/02/05 10:56:51;;;;;;;10.77;7.05;;;7.70;99.90;;;;;;4351966;28;656978;-77
2024/02/05 10:59:38;;;;;;;11.43;7.77;;;7.70;99.90;;;;;;4332774;28;656520;-77
2024/02/05 11:02:26;;;;;;;7.90;5.27;;;7.70;99.90;;;;;;4361098;28;658477;-77
2024/02/05 11:05:15;;;;;;;7.63;2.83;;;7.70;99.90;;;;;;4344973;28;655849;-76
2024/02/05 11:08:05;;;;;;;7.87;5.50;;;7.80;99.90;;;;;;4348667;28;655962;-76
2024/02/05 11:10:55;;;;;;;10.67;6.70;;;7.70;99.90;;;;;;4337421;28;655640;-77
2024/02/05 11:13:48;;;;;;;10.13;4.97;;;7.80;99.90;;;;;;4350417;28;656263;-76
2024/02/05 11:16:37;;;;;;;13.73;8.27;;;7.80;99.90;;;;;;4333264;28;657249;-77
2024/02/05 11:19:24;;;;;;;14.52;6.93;;;7.80;99.90;;;;;;4340218;28;656331;-77
2024/02/05 11:22:15;;;;;;;11.67;6.70;;;7.80;99.90;;;;;;4407586;28;656427;-76
2024/02/05 11:25:04;;;;;;;13.20;6.17;;;7.80;99.90;;;;;;4386688;28;656755;-75
2024/02/05 11:27:51;;;;;;;11.00;5.97;;;7.80;99.90;;;;;;4428089;28;656523;-77
2024/02/05 11:30:42;;;;;;;6.10;3.53;;;7.90;99.90;;;;;;4406279;28;656743;-75
2024/02/05 11:33:30;;;;;;;6.60;3.60;;;7.90;99.90;;;;;;4401546;28;655772;-75
2024/02/05 11:36:20;;;;;;;12.25;6.32;;;8.00;99.90;;;;;;4408110;28;655379;-77
2024/02/05 11:39:09;;;;;;;8.93;5.80;;;8.00;99.90;;;;;;4408213;28;656311;-76
2024/02/05 11:42:07;;;;;;;11.63;6.10;;;7.90;99.90;;;;;;4421005;28;655098;-75
2024/02/05 11:44:55;;;;;;;7.00;4.73;;;7.90;99.90;;;;;;4408386;28;658089;-75
2024/02/05 11:47:43;;;;;;;10.95;6.38;;;7.90;99.90;;;;;;4416467;28;655270;-76
2024/02/05 11:50:32;;;;;;;8.87;6.33;;;7.80;99.90;;;;;;4436747;28;657107;-75
2024/02/05 11:53:21;;;;;;;6.47;3.67;;;7.90;99.90;;;;;;4403542;28;656516;-74
2024/02/05 11:56:09;;;;;;;8.30;4.73;;;7.90;99.90;;;;;;4428323;28;655611;-75
2024/02/05 11:58:56;;;;;;;8.30;5.97;;;7.80;99.90;;;;;;4439598;28;655361;-75
2024/02/05 12:01:44;;;;;;;8.40;4.37;;;7.80;99.90;;;;;;4411018;28;656812;-75
2024/02/05 12:04:31;;;;;;;9.10;6.27;;;7.90;99.90;;;;;;4421461;28;655534;-75
2024/02/05 12:07:18;;;;;;;8.53;5.30;;;7.90;99.90;;;;;;4403484;28;655574;-75
2024/02/05 12:10:06;;;;;;;10.60;6.47;;;7.80;99.90;;;;;;4432391;28;656140;-75
2024/02/05 12:12:55;;;;;;;5.40;4.40;;;7.90;99.90;;;;;;4418771;28;656641;-75
2024/02/05 12:15:43;;;;;;;7.10;3.70;;;7.90;99.90;;;;;;4419531;28;655498;-75
2024/02/05 12:18:30;;;;;;;9.80;5.50;;;7.90;99.90;;;;;;4441791;28;656213;-75
2024/02/05 12:21:18;;;;;;;7.30;3.07;;;7.90;99.90;;;;;;4420253;28;655951;-76
2024/02/05 12:24:06;;;;;;;8.27;5.70;;;7.90;99.90;;;;;;4442283;28;655782;-76
2024/02/05 12:26:53;;;;;;;7.03;4.33;;;7.90;99.90;;;;;;4411258;28;655756;-76
2024/02/05 12:29:42;;;;;;;9.03;6.27;;;8.00;99.90;;;;;;4436383;28;655709;-75
2024/02/05 12:32:29;;;;;;;8.17;4.40;;;7.90;99.90;;;;;;4425780;28;655532;-73
2024/02/05 12:35:16;;;;;;;11.43;7.27;;;8.00;99.90;;;;;;4438307;28;655352;-73
2024/02/05 12:38:03;;;;;;;12.73;7.00;;;8.00;99.90;;;;;;4406109;28;656838;-73
2024/02/05 12:40:51;;;;;;;9.23;6.07;;;8.00;99.90;;;;;;4443030;28;658047;-75
2024/02/05 12:43:38;;;;;;;13.07;7.17;;;8.00;99.90;;;;;;4422590;28;655726;-76
2024/02/05 12:46:26;;;;;;;11.20;6.47;;;8.00;99.90;;;;;;4424801;28;657387;-75
2024/02/05 12:49:14;;;;;;;12.80;8.57;;;8.00;99.90;;;;;;4414400;28;656902;-76
2024/02/05 12:52:01;;;;;;;15.30;8.17;;;8.00;99.90;;;;;;4437337;28;657557;-75
2024/02/05 12:54:48;;;;;;;14.13;8.27;;;8.00;99.90;;;;;;4413711;28;657018;-76
2024/02/05 12:57:35;;;;;;;13.83;9.50;;;8.00;99.90;;;;;;4430702;28;657605;-76
2024/02/05 13:00:22;;;;;;;15.98;8.52;;;8.00;99.90;;;;;;4419385;28;657853;-78
2024/02/05 13:03:11;;;;;;;15.00;8.73;;;8.00;99.90;;;;;;4436624;28;657815;-75
2024/02/05 13:05:58;;;;;;;11.83;5.50;;;8.00;99.90;;;;;;4409241;28;656645;-76
2024/02/05 13:08:46;;;;;;;13.20;7.47;;;8.10;99.90;;;;;;4436342;28;657096;-75
2024/02/05 13:11:33;;;;;;;11.03;6.73;;;8.10;99.90;;;;;;4398025;28;656442;-76
2024/02/05 13:14:20;;;;;;;10.07;6.20;;;8.10;99.90;;;;;;4435927;28;657520;-75
2024/02/05 13:17:08;;;;;;;12.70;8.00;;;8.20;99.90;;;;;;4413887;28;656502;-76
2024/02/05 13:19:56;;;;;;;9.33;6.07;;;8.20;99.90;;;;;;4428848;28;657872;-76
2024/02/05 13:22:43;;;;;;;10.77;6.23;;;8.20;99.90;;;;;;4403188;28;656263;-75
2024/02/05 13:25:30;;;;;;;14.30;7.23;;;8.30;99.90;;;;;;4428571;28;656435;-76
2024/02/05 13:28:19;;;;;;;7.03;3.63;;;8.30;99.90;;;;;;4405204;28;656498;-76
2024/02/05 13:31:06;;;;;;;9.40;6.47;;;8.30;99.90;;;;;;4430433;28;655498;-75
2024/02/05 13:33:53;;;;;;;8.00;5.23;;;8.30;99.90;;;;;;4409589;28;655315;-76
2024/02/05 13:36:42;;;;;;;12.20;6.43;;;8.30;99.90;;;;;;4439475;28;655402;-76
2024/02/05 13:39:29;;;;;;;8.00;3.03;;;8.30;99.90;;;;;;4408341;28;657000;-74
2024/02/05 13:42:16;;;;;;;5.77;3.90;;;8.30;99.90;;;;;;4433611;28;655587;-76
2024/02/05 13:45:03;;;;;;;10.40;4.70;;;8.40;99.90;;;;;;4409442;28;655688;-75
2024/02/05 13:47:52;;;;;;;5.10;2.92;;;8.30;99.90;;;;;;4432121;28;657840;-76
2024/02/05 13:50:39;;;;;;;4.27;2.77;;;8.40;99.90;;;;;;4393630;28;655778;-73
2024/02/05 13:53:27;;;;;;;4.10;3.10;;;8.40;99.90;;;;;;4432839;28;655845;-75
2024/02/05 13:56:15;;;;;;;9.43;5.27;;;8.40;99.90;;;;;;4409802;28;656150;-75
2024/02/05 13:59:03;;;;;;;7.57;4.53;;;8.30;99.90;;;;;;4423989;28;655238;-76
2024/02/05 14:01:52;;;;;;;12.47;4.73;;;8.30;99.90;;;;;;4437497;28;656822;-74
2024/02/05 14:04:39;;;;;;;6.63;3.83;;;8.30;99.90;;;;;;4417199;28;656295;-75
2024/02/05 14:07:27;;;;;;;8.27;4.87;;;8.30;99.90;;;;;;4442064;28;655591;-75
2024/02/05 14:10:16;;;;;;;9.67;4.83;;;8.40;99.90;;;;;;4413048;28;656468;-75
2024/02/05 14:13:03;;;;;;;6.80;3.60;;;8.40;99.90;;;;;;4410407;28;655935;-75
2024/02/05 14:15:51;;;;;;;7.17;4.60;;;8.40;99.90;;;;;;4437030;28;655424;-75
2024/02/05 14:18:39;;;;;;;13.73;4.33;;;8.40;99.90;;;;;;4416971;28;655740;-76
2024/02/05 14:21:27;;;;;;;7.63;3.90;;;8.40;99.90;;;;;;4440520;28;656301;-76
2024/02/05 14:24:14;;;;;;;11.67;5.07;;;8.40;99.90;;;;;;4421964;28;655388;-76
2024/02/05 14:27:03;;;;;;;11.40;5.23;;;8.40;99.90;;;;;;4440766;28;655700;-76
2024/02/05 14:29:50;;;;;;;15.63;5.13;;;8.40;99.90;;;;;;4408552;28;657512;-76
2024/02/05 14:32:38;;;;;;;9.90;4.53;;;8.40;99.90;;;;;;4404343;28;656798;-77